createdAt,value
2022-10-11T00:03:17.247Z,100
2022-10-11T00:13:18.133Z,100
2022-10-11T00:23:18.282Z,100
2022-10-11T00:53:20.228Z,100
2022-10-11T01:13:20.840Z,100
2022-10-11T01:33:21.604Z,100
2022-10-11T01:53:23.005Z,100
2022-10-11T02:53:26.343Z,100
2022-10-11T03:13:27.172Z,100
2022-10-11T03:43:28.475Z,100
2022-10-11T03:53:29.172Z,100
2022-10-11T04:33:31.317Z,100
2022-10-11T05:03:33.050Z,100
2022-10-11T05:13:33.888Z,100
2022-10-11T05:44:33.338Z,100
2022-10-11T05:51:48.032Z,100
2022-10-11T06:01:49.153Z,100
2022-10-11T06:11:49.308Z,100
2022-10-11T06:21:49.950Z,100
2022-10-11T06:31:50.487Z,100
2022-10-11T06:41:50.594Z,100
2022-10-11T06:51:50.976Z,100
2022-10-11T07:11:51.943Z,100
2022-10-11T07:21:52.782Z,100
2022-10-11T07:31:53.352Z,100
2022-10-11T07:41:54.215Z,100
2022-10-11T07:51:54.981Z,100
2022-10-11T08:01:56.026Z,100
2022-10-11T08:21:57.225Z,100
2022-10-11T08:31:57.926Z,100
2022-10-11T08:41:58.234Z,100
2022-10-11T08:51:58.604Z,100
2022-10-11T09:01:59.337Z,100
2022-10-11T09:11:59.503Z,100
2022-10-11T09:21:59.831Z,99
2022-10-11T09:31:59.923Z,97
2022-10-11T09:52:00.736Z,90
2022-10-11T10:02:01.826Z,89
2022-10-11T10:22:03.696Z,86
2022-10-11T10:32:14.829Z,83
2022-10-11T10:42:05.094Z,78
2022-10-11T10:52:05.719Z,77
2022-10-11T11:02:28.010Z,78
2022-10-11T11:12:06.830Z,78
2022-10-11T11:22:32.534Z,78
2022-10-11T11:42:13.404Z,72
2022-10-11T11:52:13.533Z,71
2022-10-11T12:02:13.811Z,71
2022-10-11T12:22:15.053Z,67
2022-10-11T12:52:16.769Z,68
2022-10-11T13:22:18.767Z,68
2022-10-11T13:32:19.065Z,66
2022-10-11T13:42:19.538Z,65
2022-10-11T14:22:21.946Z,69
2022-10-11T14:32:22.199Z,72
2022-10-11T14:42:22.292Z,73
2022-10-11T14:52:22.881Z,74
2022-10-11T15:02:23.579Z,76
2022-10-11T15:12:24.224Z,77
2022-10-11T15:22:24.880Z,81
2022-10-11T15:32:25.249Z,82
2022-10-11T15:42:25.430Z,83
2022-10-11T16:02:27.125Z,83
2022-10-11T16:42:29.945Z,89
2022-10-11T17:12:32.042Z,93
2022-10-11T17:32:32.867Z,96
2022-10-11T17:42:33.501Z,97
2022-10-11T17:52:34.040Z,98
2022-10-11T18:02:35.141Z,99
2022-10-11T18:12:35.894Z,99
2022-10-11T18:22:36.252Z,100
2022-10-11T18:32:37.148Z,100
2022-10-11T18:42:37.424Z,100
2022-10-11T18:52:41.248Z,100
2022-10-11T19:12:39.346Z,100
2022-10-11T19:22:40.182Z,100
2022-10-11T21:02:46.812Z,100
2022-10-11T21:12:47.723Z,100
2022-10-11T21:22:48.294Z,100
2022-10-11T21:32:48.585Z,100
2022-10-11T21:42:49.297Z,100
2022-10-11T21:52:49.806Z,100
2022-10-11T22:02:50.425Z,100
2022-10-11T22:12:50.771Z,100
2022-10-11T22:22:51.381Z,100
2022-10-11T22:32:51.515Z,100
2022-10-11T22:42:52.267Z,100
2022-10-11T22:52:52.526Z,100
2022-10-11T23:02:52.720Z,100
2022-10-11T23:12:53.420Z,100
2022-10-11T23:22:54.369Z,100
2022-10-11T23:32:54.819Z,100
2022-10-11T23:42:55.165Z,100
2022-10-11T23:52:56.096Z,100
